Terminal Aerodrome Forecast
Issued by NWS

Current Version | Previous Version | Text Only | Print | Product List | Glossary On
Versions: 1 2 3 4 5 6 7 8 9 10 11 12
482
FTUS45 KABQ 142320
TAFTCC
TAF
KTCC 142320Z 1500/1524 04008KT P6SM BKN060
     FM150400 32004KT P6SM SCT050
     FM151000 24007KT P6SM SKC
     FM151600 23016G26KT P6SM SKC=

USA.gov is the U.S. government's official web portal to all federal, state and local government web resources and services.